Time;durP1;ratioP1;P1;durP2;ratioP2;P2;SDS_P1;SDS_P2;PMS_P1;PMS_P2;Temp;Humidity;BMP_temperature;BMP_pressure;BME280_temperature;BME280_humidity;BME280_pressure;Samples;Min_cycle;Max_cycle;Signal;HPM_P1;HPM_P2
2021/12/29 00:01:26;;;;;;;20.63;16.80;;;;;;;18.43;24.54;100224.38;5115178;27;20486;-65
2021/12/29 00:03:53;;;;;;;20.45;16.70;;;;;;;18.43;24.75;100228.91;5124320;27;20035;-65
2021/12/29 00:06:18;;;;;;;21.10;16.30;;;;;;;18.41;24.62;100223.69;5131928;27;20041;-66
2021/12/29 00:08:44;;;;;;;20.85;16.38;;;;;;;18.42;24.85;100230.72;5130479;27;20031;-66
2021/12/29 00:11:09;;;;;;;19.27;14.73;;;;;;;18.41;24.63;100223.69;5132233;27;20023;-66
2021/12/29 00:13:35;;;;;;;18.90;14.57;;;;;;;18.45;24.57;100229.59;5125670;27;20042;-66
2021/12/29 00:16:01;;;;;;;18.25;13.90;;;;;;;18.42;24.79;100227.22;5133889;27;20031;-66
2021/12/29 00:18:29;;;;;;;18.70;14.00;;;;;;;18.41;24.88;100231.72;5128537;27;20054;-66
2021/12/29 00:20:56;;;;;;;23.50;14.73;;;;;;;18.43;24.75;100228.91;5133497;27;20027;-66
2021/12/29 00:23:22;;;;;;;17.67;13.93;;;;;;;18.44;24.87;100235.94;5131902;27;20030;-67
2021/12/29 00:25:47;;;;;;;18.20;14.00;;;;;;;18.43;24.68;100220.84;5133773;27;20409;-67
2021/12/29 00:28:15;;;;;;;16.67;12.80;;;;;;;18.42;24.65;100217.31;5133607;27;20126;-66
2021/12/29 00:30:41;;;;;;;17.08;14.13;;;;;;;18.41;24.58;100226.34;5133691;27;20023;-66
2021/12/29 00:33:07;;;;;;;18.23;14.23;;;;;;;18.42;24.61;100221.84;5131159;27;20023;-66
2021/12/29 00:35:34;;;;;;;16.10;12.82;;;;;;;18.42;24.79;100221.84;5133635;27;20039;-66
2021/12/29 00:38:03;;;;;;;18.30;13.38;;;;;;;18.43;24.94;100213.66;5132684;27;20415;-66
2021/12/29 00:40:29;;;;;;;17.27;13.27;;;;;;;18.44;24.76;100214.50;5133349;27;20038;-65
2021/12/29 00:42:55;;;;;;;16.20;13.48;;;;;;;18.42;24.68;100213.81;5120414;27;20389;-65
2021/12/29 00:45:21;;;;;;;16.98;13.02;;;;;;;18.42;24.67;100222.69;5131697;28;20030;-65
2021/12/29 00:47:48;;;;;;;16.27;12.10;;;;;;;18.40;24.69;100222.00;5133333;28;20501;-64
2021/12/29 00:50:16;;;;;;;14.65;11.48;;;;;;;18.43;24.70;100224.38;5132376;28;20023;-66
2021/12/29 00:52:45;;;;;;;15.77;11.85;;;;;;;18.44;24.76;100225.22;5131906;28;20079;-68
2021/12/29 00:55:13;;;;;;;17.38;12.13;;;;;;;18.42;24.89;100217.31;5128667;28;20390;-64
2021/12/29 00:57:38;;;;;;;17.65;11.57;;;;;;;18.44;25.34;100214.50;5120982;28;20031;-63
2021/12/29 01:00:11;;;;;;;16.38;12.40;;;;;;;18.44;25.27;100215.34;5133334;28;20411;-66
2021/12/29 01:02:37;;;;;;;18.50;12.50;;;;;;;18.45;25.13;100217.00;5132822;28;20441;-65
2021/12/29 01:05:04;;;;;;;14.07;10.02;;;;;;;18.45;25.11;100226.91;5133217;28;20038;-65
2021/12/29 01:07:30;;;;;;;16.40;11.65;;;;;;;18.44;25.13;100214.50;5133120;28;20042;-68
2021/12/29 01:09:55;;;;;;;16.02;10.75;;;;;;;18.45;25.17;100226.91;5133093;28;20027;-64
2021/12/29 01:12:22;;;;;;;18.40;11.18;;;;;;;18.45;25.16;100229.59;5119420;28;20035;-64
2021/12/29 01:14:54;;;;;;;17.05;11.15;;;;;;;18.45;25.30;100233.09;5132886;28;20034;-64
2021/12/29 01:17:21;;;;;;;17.58;11.02;;;;;;;18.47;25.30;100226.75;5122538;28;20555;-64
2021/12/29 01:19:47;;;;;;;18.45;11.48;;;;;;;18.48;25.55;100228.41;5112270;28;20134;-64
2021/12/29 01:22:13;;;;;;;18.65;11.23;;;;;;;18.47;25.30;100224.88;5124655;28;20096;-62
2021/12/29 01:24:39;;;;;;;17.75;10.95;;;;;;;18.50;25.58;100223.75;5132475;28;20039;-64
2021/12/29 01:27:05;;;;;;;16.60;11.80;;;;;;;18.49;25.05;100222.06;5130545;28;20552;-65
2021/12/29 01:29:31;;;;;;;14.70;10.43;;;;;;;18.43;24.92;100218.19;5133148;28;20035;-66
2021/12/29 01:31:59;;;;;;;17.38;11.00;;;;;;;18.37;24.58;100216.09;5133299;28;20462;-65
2021/12/29 01:34:25;;;;;;;16.10;11.98;;;;;;;18.35;24.32;100215.41;5133227;28;20051;-63
2021/12/29 01:36:51;;;;;;;16.20;10.18;;;;;;;18.30;24.34;100207.84;5131839;28;20057;-62
2021/12/29 01:39:18;;;;;;;13.38;10.20;;;;;;;18.27;24.46;100217.03;5125234;28;20054;-65
2021/12/29 01:41:45;;;;;;;15.35;10.80;;;;;;;18.26;24.53;100212.69;5131563;28;20047;-63
2021/12/29 01:44:12;;;;;;;12.40;8.90;;;;;;;18.28;24.09;100223.22;5132808;28;20027;-62
2021/12/29 01:46:39;;;;;;;15.02;10.30;;;;;;;18.25;23.91;100215.50;5132935;28;20031;-63
2021/12/29 01:49:05;;;;;;;12.95;9.25;;;;;;;18.23;23.98;100215.66;5131995;28;20035;-64
2021/12/29 01:51:31;;;;;;;13.77;9.50;;;;;;;18.25;23.92;100221.72;5131605;28;20029;-63
2021/12/29 01:54:15;;;;;;;12.70;9.55;;;;;;;18.27;23.89;100221.53;5113790;28;20035;-63
2021/12/29 01:56:44;;;;;;;12.75;10.02;;;;;;;18.25;24.05;100215.50;5132255;27;20035;-62
2021/12/29 01:59:10;;;;;;;13.00;9.40;;;;;;;18.25;23.95;100218.19;5136259;27;20408;-63
2021/12/29 02:01:36;;;;;;;11.00;8.38;;;;;;;18.27;24.03;100210.84;5135970;27;20038;-62
2021/12/29 02:04:01;;;;;;;10.57;8.40;;;;;;;18.24;23.90;100209.31;5136241;27;20026;-62
2021/12/29 02:06:27;;;;;;;14.18;7.95;;;;;;;18.21;24.24;100214.97;5136263;27;20034;-64
2021/12/29 02:08:55;;;;;;;11.68;9.07;;;;;;;18.22;24.21;100210.47;5134502;27;20453;-62
2021/12/29 02:11:29;;;;;;;13.93;9.13;;;;;;;18.20;23.75;100212.47;5133514;27;20035;-63
2021/12/29 02:13:58;;;;;;;8.70;7.32;;;;;;;18.20;23.88;100221.31;5116217;28;20403;-60
2021/12/29 02:16:23;;;;;;;11.57;8.98;;;;;;;18.19;23.70;100214.28;5115831;27;20036;-61
2021/12/29 02:19:00;;;;;;;11.25;8.20;;;;;;;18.17;24.36;100212.75;5119928;27;20871;-61
2021/12/29 02:21:28;;;;;;;10.75;7.85;;;;;;;18.14;23.99;100216.59;5114517;27;20059;-61
2021/12/29 02:26:32;;;;;;;10.35;7.97;;;;;;;18.11;23.71;100223.09;5133047;27;20182;-60
2021/12/29 02:29:00;;;;;;;11.15;8.38;;;;;;;18.09;23.66;100222.38;5133654;27;20076;-62
2021/12/29 02:31:27;;;;;;;12.43;8.48;;;;;;;18.08;23.60;100226.09;5133801;27;20061;-62
2021/12/29 02:33:53;;;;;;;10.88;7.85;;;;;;;18.08;23.89;100214.53;5134081;27;20074;-61
2021/12/29 02:36:20;;;;;;;10.95;8.20;;;;;;;18.07;23.87;100216.38;5120679;27;20534;-62
2021/12/29 02:38:52;;;;;;;10.65;8.75;;;;;;;18.05;23.71;100215.69;5133468;27;20042;-61
2021/12/29 02:41:19;;;;;;;10.07;7.55;;;;;;;18.03;23.68;100217.66;5114124;27;20038;-62
2021/12/29 02:43:46;;;;;;;9.95;7.97;;;;;;;18.03;23.67;100217.66;5114270;27;20023;-61
2021/12/29 02:46:15;;;;;;;11.52;7.80;;;;;;;18.02;23.77;100210.63;5126895;27;20031;-62
2021/12/29 02:48:49;;;;;;;11.02;8.15;;;;;;;18.01;23.65;100208.13;5123918;27;20665;-62
2021/12/29 02:51:15;;;;;;;10.30;8.02;;;;;;;18.01;23.90;100208.94;5126626;27;20147;-61
2021/12/29 02:53:41;;;;;;;11.43;8.60;;;;;;;17.98;23.92;100201.19;5133614;27;20030;-61
2021/12/29 02:56:07;;;;;;;11.55;8.52;;;;;;;17.98;23.82;100212.78;5128639;27;20024;-61
2021/12/29 02:58:33;;;;;;;11.45;8.90;;;;;;;17.96;23.72;100214.72;5120380;27;20044;-61
2021/12/29 03:01:01;;;;;;;11.23;8.77;;;;;;;17.96;23.87;100213.88;5133383;27;20418;-61
2021/12/29 03:03:30;;;;;;;10.82;8.68;;;;;;;17.96;23.85;100214.72;5133042;27;20023;-60
2021/12/29 03:05:56;;;;;;;12.70;9.15;;;;;;;17.95;23.61;100212.19;5132857;27;20389;-61
2021/12/29 03:08:23;;;;;;;12.98;9.05;;;;;;;17.95;23.72;100210.38;5132635;27;20533;-60
2021/12/29 03:10:52;;;;;;;11.65;8.50;;;;;;;17.94;23.65;100203.31;5133098;27;20022;-61
2021/12/29 03:13:20;;;;;;;13.25;8.82;;;;;;;17.95;23.77;100209.50;5112059;27;20494;-62
2021/12/29 03:15:45;;;;;;;12.68;9.52;;;;;;;17.94;23.72;100203.31;5132170;27;20119;-62
2021/12/29 03:18:11;;;;;;;13.07;9.88;;;;;;;17.94;23.64;100199.81;5132507;27;20130;-61
2021/12/29 03:20:36;;;;;;;10.00;8.00;;;;;;;17.94;23.90;100200.66;5132362;27;20023;-62
2021/12/29 03:23:02;;;;;;;10.93;8.55;;;;;;;17.94;23.87;100197.13;5132109;27;20167;-62
2021/12/29 03:25:27;;;;;;;12.07;9.32;;;;;;;17.94;23.88;100191.78;5131756;27;20493;-62
2021/12/29 03:27:58;;;;;;;10.50;8.68;;;;;;;17.93;23.84;100179.38;5113522;27;20038;-61
2021/12/29 03:30:26;;;;;;;13.63;10.20;;;;;;;17.93;23.72;100190.09;5132222;27;20026;-62
2021/12/29 03:33:02;;;;;;;12.98;10.25;;;;;;;17.93;23.74;100185.56;5131965;27;20049;-60
2021/12/29 03:35:28;;;;;;;13.38;10.05;;;;;;;17.94;23.77;100197.97;5132511;27;20023;-60
2021/12/29 03:37:54;;;;;;;13.88;9.93;;;;;;;17.92;23.86;100197.28;5131734;27;20031;-62
2021/12/29 03:40:19;;;;;;;15.43;11.23;;;;;;;17.93;23.66;100187.41;5123550;27;20039;-60
2021/12/29 03:42:45;;;;;;;13.05;9.88;;;;;;;17.93;23.66;100188.25;5112870;27;20490;-62
2021/12/29 03:45:10;;;;;;;15.38;11.00;;;;;;;17.93;23.75;100187.41;5113341;27;20114;-62
2021/12/29 03:47:36;;;;;;;13.13;9.98;;;;;;;17.91;23.64;100187.56;5112968;28;20035;-62
2021/12/29 03:50:03;;;;;;;15.40;10.27;;;;;;;17.91;23.55;100186.72;5112890;27;20019;-62
2021/12/29 03:52:28;;;;;;;13.15;10.00;;;;;;;17.91;23.62;100189.41;5112848;28;20031;-60
2021/12/29 03:54:54;;;;;;;14.23;11.18;;;;;;;17.91;23.63;100189.41;5113104;27;20030;-62
2021/12/29 03:57:19;;;;;;;13.73;9.90;;;;;;;17.88;23.92;100195.06;5120350;27;20027;-60
2021/12/29 03:59:45;;;;;;;14.15;9.77;;;;;;;17.86;23.79;100200.56;5132181;27;20030;-61
2021/12/29 04:02:10;;;;;;;14.00;9.93;;;;;;;17.83;23.93;100191.00;5131705;27;20046;-61
2021/12/29 04:04:36;;;;;;;13.43;10.48;;;;;;;17.83;23.75;100191.00;5131722;27;20389;-61
2021/12/29 04:07:02;;;;;;;13.98;10.18;;;;;;;17.87;23.23;100196.06;5131731;27;20038;-59
2021/12/29 04:09:27;;;;;;;14.38;11.00;;;;;;;17.87;23.60;100190.69;5126067;27;20032;-61
2021/12/29 04:11:53;;;;;;;13.13;10.35;;;;;;;17.86;23.68;100181.84;5117913;27;20037;-62
2021/12/29 04:14:21;;;;;;;13.35;9.02;;;;;;;17.85;23.79;100178.31;5131659;27;20031;-61
2021/12/29 04:16:47;;;;;;;15.70;10.68;;;;;;;17.84;23.80;100179.28;5130916;27;20574;-61
2021/12/29 04:19:15;;;;;;;14.55;10.43;;;;;;;17.83;23.58;100172.25;5112854;27;20091;-64
2021/12/29 04:21:43;;;;;;;14.30;10.05;;;;;;;17.85;23.46;100177.47;5131342;27;20027;-61
2021/12/29 04:24:10;;;;;;;18.52;11.27;;;;;;;17.87;23.72;100175.47;5131617;27;20370;-60
2021/12/29 04:26:37;;;;;;;13.75;9.35;;;;;;;17.87;23.60;100167.44;5130563;27;20532;-62
2021/12/29 04:29:08;;;;;;;13.35;9.23;;;;;;;17.85;23.51;100164.09;5114646;27;20027;-62
2021/12/29 04:31:34;;;;;;;15.15;9.75;;;;;;;17.85;23.67;100166.78;5112100;27;20031;-61
2021/12/29 04:33:59;;;;;;;13.43;10.63;;;;;;;17.82;23.41;100167.91;5112431;27;20163;-61
2021/12/29 04:36:25;;;;;;;14.75;9.98;;;;;;;17.85;23.34;100162.25;5131181;27;20528;-61
2021/12/29 04:38:53;;;;;;;14.27;10.82;;;;;;;17.85;23.55;100156.88;5131398;27;20030;-63
2021/12/29 04:41:20;;;;;;;14.15;10.38;;;;;;;17.85;23.46;100158.75;5131258;27;20168;-65
2021/12/29 04:43:45;;;;;;;13.02;9.43;;;;;;;17.85;23.61;100162.25;5131230;27;20026;-62
2021/12/29 04:46:16;;;;;;;13.30;9.70;;;;;;;17.87;23.35;100163.94;5114629;28;20485;-62
2021/12/29 04:48:50;;;;;;;14.75;10.73;;;;;;;17.84;23.57;100167.75;5112760;28;20080;-62
2021/12/29 04:51:22;;;;;;;14.48;10.25;;;;;;;17.82;23.69;100164.38;5112113;28;20061;-62
2021/12/29 04:53:48;;;;;;;15.57;11.43;;;;;;;17.80;23.36;100169.88;5129367;28;20478;-62
2021/12/29 04:56:15;;;;;;;16.58;11.75;;;;;;;17.81;23.67;100168.88;5127937;28;20034;-61
2021/12/29 04:58:41;;;;;;;18.88;12.88;;;;;;;17.78;23.19;100161.19;5112238;28;20019;-62
2021/12/29 05:01:06;;;;;;;16.98;11.65;;;;;;;17.82;23.50;100167.91;5118895;28;20027;-61
2021/12/29 05:03:32;;;;;;;19.10;13.32;;;;;;;17.83;23.29;100163.41;5131481;28;20051;-62
2021/12/29 05:08:24;;;;;;;20.75;14.07;;;;;;;17.81;23.11;100168.06;5131345;28;20027;-62
2021/12/29 05:08:43;;;;;;;19.80;13.85;;;;;;;17.81;23.18;100162.72;5130487;28;20509;-62
2021/12/29 05:11:11;;;;;;;18.55;12.63;;;;;;;17.79;23.32;100173.53;5126235;28;20038;-61
2021/12/29 05:13:40;;;;;;;19.77;14.27;;;;;;;17.78;23.12;100166.53;5130044;28;20513;-62
2021/12/29 05:16:07;;;;;;;22.50;14.60;;;;;;;17.78;23.00;100157.66;5130632;28;20042;-62
2021/12/29 05:18:35;;;;;;;22.27;15.07;;;;;;;17.78;22.84;100169.22;5130899;28;20059;-62
2021/12/29 05:21:02;;;;;;;20.45;14.85;;;;;;;17.77;22.98;100164.84;5130868;28;20023;-62
2021/12/29 05:23:28;;;;;;;20.75;13.85;;;;;;;17.77;23.00;100164.84;5130262;28;20520;-61
2021/12/29 05:25:54;;;;;;;24.13;15.10;;;;;;;17.78;23.18;100163.88;5130854;28;20030;-62
2021/12/29 05:28:20;;;;;;;21.33;13.82;;;;;;;17.78;23.09;100160.34;5130538;28;20481;-62
2021/12/29 05:30:47;;;;;;;22.98;14.80;;;;;;;17.80;23.29;100153.81;5134342;27;20047;-62
2021/12/29 05:33:14;;;;;;;20.98;13.57;;;;;;;17.79;23.09;100159.34;5118212;27;20030;-62
2021/12/29 05:35:40;;;;;;;23.60;14.70;;;;;;;17.77;23.42;100158.66;5136813;27;20114;-62
2021/12/29 05:38:06;;;;;;;28.05;16.00;;;;;;;17.74;22.91;100148.22;5136025;27;20106;-62
2021/12/29 05:40:31;;;;;;;25.55;14.98;;;;;;;17.75;23.24;100156.13;5135856;27;20031;-62
2021/12/29 05:42:58;;;;;;;21.60;13.43;;;;;;;17.74;23.17;100150.91;5136564;27;20520;-63
2021/12/29 05:45:25;;;;;;;23.55;14.93;;;;;;;17.73;23.23;100158.13;5136759;27;20557;-62
2021/12/29 05:47:52;;;;;;;21.85;13.77;;;;;;;17.73;23.04;100152.75;5135612;27;20096;-63
2021/12/29 05:50:20;;;;;;;20.33;14.00;;;;;;;17.73;22.83;100162.59;5135895;27;20023;-63
2021/12/29 05:52:46;;;;;;;29.27;14.35;;;;;;;17.73;23.26;100166.16;5136574;27;20505;-62
2021/12/29 05:55:12;;;;;;;24.33;14.55;;;;;;;17.72;23.00;100164.47;5134447;27;20039;-63
2021/12/29 05:57:38;;;;;;;21.67;14.30;;;;;;;17.71;23.28;100176.16;5135217;27;20465;-62
2021/12/29 06:00:06;;;;;;;23.38;13.90;;;;;;;17.70;23.28;100166.44;5136432;27;20035;-62
2021/12/29 06:02:32;;;;;;;22.20;13.60;;;;;;;17.68;23.20;100171.97;5135824;27;20023;-63
2021/12/29 06:04:57;;;;;;;20.42;13.05;;;;;;;17.68;23.12;100174.63;5135715;27;20080;-63
2021/12/29 06:07:23;;;;;;;24.33;15.57;;;;;;;17.70;23.22;100174.47;5136149;27;20070;-63
2021/12/29 06:09:48;;;;;;;20.83;13.70;;;;;;;17.69;22.95;100173.66;5135740;27;20031;-63
2021/12/29 06:12:14;;;;;;;22.08;13.77;;;;;;;17.72;22.88;100172.50;5134744;27;20039;-62
2021/12/29 06:14:39;;;;;;;25.48;13.93;;;;;;;17.73;23.14;100165.28;5135113;27;20027;-62
2021/12/29 06:17:05;;;;;;;20.48;13.55;;;;;;;17.73;22.80;100170.63;5135766;27;20023;-63
2021/12/29 06:19:32;;;;;;;24.88;15.02;;;;;;;17.71;22.72;100176.16;5136107;27;20026;-62
2021/12/29 06:21:57;;;;;;;20.63;13.20;;;;;;;17.71;22.88;100172.66;5135791;27;20035;-62
2021/12/29 06:24:23;;;;;;;21.67;13.02;;;;;;;17.71;23.07;100173.47;5135848;27;20114;-62
2021/12/29 06:26:48;;;;;;;22.60;13.30;;;;;;;17.70;22.88;100174.47;5135420;27;20179;-62
2021/12/29 06:29:13;;;;;;;22.63;13.48;;;;;;;17.68;22.86;100169.28;5135749;27;20094;-62
2021/12/29 06:31:39;;;;;;;22.15;14.15;;;;;;;17.69;23.11;100170.97;5135643;27;20041;-62
2021/12/29 06:34:05;;;;;;;26.90;15.32;;;;;;;17.71;22.79;100172.66;5135289;27;20031;-63
2021/12/29 06:36:31;;;;;;;25.58;15.15;;;;;;;17.70;22.75;100174.47;5135550;27;20034;-62
2021/12/29 06:38:56;;;;;;;26.98;16.55;;;;;;;17.68;22.75;100180.00;5135333;27;20433;-62
2021/12/29 06:41:22;;;;;;;29.02;16.55;;;;;;;17.69;22.74;100188.84;5134055;27;20115;-62
2021/12/29 06:43:48;;;;;;;25.55;15.55;;;;;;;17.68;23.06;100192.50;5135087;27;20114;-61
2021/12/29 06:46:14;;;;;;;30.95;16.98;;;;;;;17.67;22.60;100186.31;5135297;27;20051;-63
2021/12/29 06:48:39;;;;;;;29.10;17.00;;;;;;;17.67;22.86;100180.97;5135282;27;20379;-62
2021/12/29 06:51:05;;;;;;;29.10;16.92;;;;;;;17.68;22.89;100179.13;5135535;27;20023;-62
2021/12/29 06:53:31;;;;;;;29.73;17.13;;;;;;;17.66;22.65;100176.63;5135006;27;20137;-62
2021/12/29 06:55:58;;;;;;;33.03;18.20;;;;;;;17.68;22.81;100176.44;5129537;27;20036;-60
2021/12/29 06:58:23;;;;;;;31.45;17.20;;;;;;;17.68;22.49;100180.00;5114178;28;20123;-62
2021/12/29 07:00:49;;;;;;;26.40;17.10;;;;;;;17.69;22.49;100184.34;5114277;28;20124;-62
2021/12/29 07:03:15;;;;;;;28.88;17.85;;;;;;;17.68;22.47;100177.31;5114430;28;20122;-62
2021/12/29 07:05:40;;;;;;;30.98;18.33;;;;;;;17.68;22.69;100182.66;5114641;28;20119;-62
2021/12/29 07:08:07;;;;;;;30.35;18.15;;;;;;;17.67;22.69;100180.13;5114480;28;20031;-62
2021/12/29 07:10:32;;;;;;;32.28;18.20;;;;;;;17.68;22.75;100174.63;5114523;28;20039;-62
2021/12/29 07:12:58;;;;;;;32.50;18.23;;;;;;;17.70;22.75;100174.47;5130702;27;20035;-62
2021/12/29 07:15:23;;;;;;;29.83;17.35;;;;;;;17.72;22.87;100188.53;5134998;27;20169;-62
2021/12/29 07:17:49;;;;;;;29.42;17.13;;;;;;;17.70;22.87;100182.50;5134694;27;20107;-62
2021/12/29 07:20:15;;;;;;;28.50;17.00;;;;;;;17.72;22.72;100187.72;5134755;27;20031;-60
2021/12/29 07:22:40;;;;;;;27.23;18.20;;;;;;;17.71;22.62;100186.88;5134588;27;20034;-62
2021/12/29 07:25:06;;;;;;;26.42;16.67;;;;;;;17.72;22.82;100179.69;5134770;27;20031;-62
2021/12/29 07:27:32;;;;;;;23.40;15.95;;;;;;;17.73;22.92;100176.00;5134341;27;20051;-62
2021/12/29 07:29:57;;;;;;;26.58;17.17;;;;;;;17.70;22.88;100169.13;5134827;27;20172;-62
2021/12/29 07:32:23;;;;;;;25.17;15.93;;;;;;;17.69;23.01;100172.78;5134361;27;20031;-62
2021/12/29 07:34:48;;;;;;;25.27;15.20;;;;;;;17.69;22.76;100179.00;5134718;27;20473;-62
2021/12/29 07:37:14;;;;;;;27.67;16.40;;;;;;;17.70;22.73;100171.78;5134103;27;20031;-62
2021/12/29 07:39:41;;;;;;;24.10;16.67;;;;;;;17.68;22.90;100165.75;5134208;27;20045;-62
2021/12/29 07:42:07;;;;;;;28.58;17.63;;;;;;;17.70;22.82;100158.41;5134169;27;20031;-62
2021/12/29 07:44:33;;;;;;;27.50;16.40;;;;;;;17.72;22.64;100161.78;5134521;27;20447;-62
2021/12/29 07:46:59;;;;;;;27.95;17.13;;;;;;;17.71;22.85;100156.59;5134614;27;20039;-62
2021/12/29 07:49:27;;;;;;;26.10;17.23;;;;;;;17.71;22.57;100154.75;5133615;27;20049;-64
2021/12/29 07:51:53;;;;;;;29.33;18.23;;;;;;;17.74;22.61;100164.28;5133961;27;20035;-62
2021/12/29 07:54:21;;;;;;;30.27;19.42;;;;;;;17.76;22.54;100162.31;5134515;27;20099;-62
2021/12/29 07:56:47;;;;;;;33.55;18.67;;;;;;;17.76;22.78;100151.59;5133932;27;20114;-62
2021/12/29 07:59:13;;;;;;;28.05;16.83;;;;;;;17.80;22.66;100153.00;5134097;27;20066;-62
2021/12/29 08:01:40;;;;;;;31.77;19.33;;;;;;;17.79;22.25;100156.66;5132977;27;20080;-63
2021/12/29 08:04:05;;;;;;;32.40;18.73;;;;;;;17.82;22.41;100156.38;5133017;27;20038;-62
2021/12/29 08:06:31;;;;;;;26.83;16.92;;;;;;;17.84;23.04;100146.34;5131974;27;20477;-61
2021/12/29 08:08:56;;;;;;;31.27;18.45;;;;;;;17.92;23.32;100145.56;5129398;27;20034;-62
2021/12/29 08:11:22;;;;;;;28.45;18.67;;;;;;;17.96;23.33;100144.25;5130637;27;20036;-62
2021/12/29 08:13:48;;;;;;;32.22;18.70;;;;;;;17.99;23.51;100142.16;5131649;27;20110;-61
2021/12/29 08:16:14;;;;;;;27.48;17.33;;;;;;;18.03;23.04;100136.47;5132173;27;20031;-61
2021/12/29 08:18:40;;;;;;;28.70;18.75;;;;;;;18.07;23.13;100137.84;5132178;27;20059;-61
2021/12/29 08:21:06;;;;;;;30.50;15.77;;;;;;;18.09;23.94;100135.88;5121447;27;20434;-63
2021/12/29 08:23:32;;;;;;;31.25;16.98;;;;;;;18.13;23.85;100137.25;5128294;27;20116;-59
2021/12/29 08:25:59;;;;;;;26.70;17.45;;;;;;;18.16;23.87;100136.91;5125692;27;20578;-61
2021/12/29 08:28:24;;;;;;;29.05;16.60;;;;;;;18.19;23.66;100133.09;5129319;27;20039;-60
2021/12/29 08:30:51;;;;;;;27.17;17.20;;;;;;;18.21;23.75;100133.78;5121629;27;20061;-59
2021/12/29 08:33:17;;;;;;;26.83;17.55;;;;;;;18.22;23.48;100117.56;5127585;27;20566;-60
2021/12/29 08:35:43;;;;;;;27.95;17.70;;;;;;;18.24;23.62;100110.22;5132480;27;20043;-64
2021/12/29 08:38:08;;;;;;;28.27;18.25;;;;;;;18.26;23.50;100115.41;5126613;27;20031;-64
2021/12/29 08:40:34;;;;;;;30.02;16.95;;;;;;;18.26;23.89;100115.41;5113070;27;20039;-63
2021/12/29 08:43:02;;;;;;;26.50;17.20;;;;;;;18.26;23.52;100115.41;5119428;27;20050;-64
2021/12/29 08:45:28;;;;;;;27.05;17.10;;;;;;;18.27;23.15;100119.75;5123364;28;20031;-63
2021/12/29 08:47:57;;;;;;;26.13;16.02;;;;;;;18.27;23.36;100111.72;5126165;28;20496;-64
2021/12/29 08:50:25;;;;;;;26.83;16.23;;;;;;;18.25;23.55;100119.94;5124791;28;20435;-63
2021/12/29 08:52:52;;;;;;;26.52;17.98;;;;;;;18.25;23.22;100113.72;5131630;28;20023;-63
2021/12/29 08:55:17;;;;;;;25.80;17.00;;;;;;;18.23;23.08;100111.19;5132766;28;20496;-64
2021/12/29 08:57:43;;;;;;;22.80;16.83;;;;;;;18.22;23.13;100109.50;5131403;28;20087;-63
2021/12/29 09:00:12;;;;;;;25.85;18.08;;;;;;;18.22;22.84;100106.84;5132953;28;20039;-64
2021/12/29 09:02:38;;;;;;;25.00;17.15;;;;;;;18.22;22.91;100098.81;5133302;28;20126;-63
2021/12/29 09:05:05;;;;;;;28.52;16.67;;;;;;;18.20;22.92;100102.66;5135279;27;20099;-63
2021/12/29 09:07:30;;;;;;;25.77;17.13;;;;;;;18.20;23.08;100095.44;5137204;27;20038;-64
2021/12/29 09:09:56;;;;;;;26.95;17.77;;;;;;;18.19;23.06;100101.78;5136114;27;20035;-64
2021/12/29 09:12:21;;;;;;;28.15;16.85;;;;;;;18.21;23.06;100093.63;5124716;27;20256;-64
2021/12/29 09:14:48;;;;;;;29.80;18.25;;;;;;;18.19;22.94;100093.75;5117182;28;20080;-65
2021/12/29 09:17:14;;;;;;;26.77;16.35;;;;;;;18.18;22.96;100092.06;5116269;28;20542;-65
2021/12/29 09:19:41;;;;;;;25.55;16.52;;;;;;;18.17;23.13;100093.06;5134366;27;20035;-64
2021/12/29 09:22:08;;;;;;;26.38;17.40;;;;;;;18.15;22.98;100087.06;5136707;27;20039;-64
2021/12/29 09:24:34;;;;;;;25.40;17.15;;;;;;;18.15;23.50;100084.38;5137215;27;20038;-64
2021/12/29 09:27:00;;;;;;;25.13;17.30;;;;;;;18.14;23.38;100075.47;5135366;27;20145;-64
2021/12/29 09:29:25;;;;;;;25.02;17.67;;;;;;;18.13;23.39;100079.16;5137079;27;20073;-64
2021/12/29 09:31:51;;;;;;;26.75;17.90;;;;;;;18.15;23.80;100079.03;5136871;27;20027;-64
2021/12/29 09:34:17;;;;;;;27.17;17.38;;;;;;;18.14;24.39;100072.81;5136493;27;20042;-65
2021/12/29 09:36:43;;;;;;;26.58;17.83;;;;;;;18.15;24.46;100069.13;5136242;27;20087;-64
2021/12/29 09:39:08;;;;;;;29.27;19.27;;;;;;;18.16;24.67;100064.59;5136242;27;20125;-65
2021/12/29 09:41:34;;;;;;;29.10;19.13;;;;;;;18.18;24.79;100059.94;5135734;27;20042;-64
2021/12/29 09:44:00;;;;;;;26.02;18.42;;;;;;;18.20;24.95;100070.50;5136604;27;20031;-64
2021/12/29 09:46:25;;;;;;;26.75;18.52;;;;;;;18.22;25.28;100074.69;5135707;27;20546;-64
2021/12/29 09:48:51;;;;;;;33.40;18.42;;;;;;;18.24;25.26;100064.66;5136419;27;20049;-64
2021/12/29 09:51:18;;;;;;;25.10;16.60;;;;;;;18.25;24.70;100052.97;5135732;27;20470;-64
2021/12/29 09:53:45;;;;;;;25.50;16.23;;;;;;;18.27;24.83;100056.31;5136406;27;20075;-64
2021/12/29 09:56:11;;;;;;;26.73;17.33;;;;;;;18.26;25.03;100060.00;5129008;27;20044;-64
2021/12/29 09:58:38;;;;;;;24.85;16.85;;;;;;;18.23;24.47;100041.56;5134025;27;20079;-64
2021/12/29 10:01:06;;;;;;;23.15;15.05;;;;;;;18.22;24.43;100044.41;5135392;27;20497;-64
2021/12/29 10:03:33;;;;;;;22.75;16.13;;;;;;;18.20;24.58;100041.88;5136345;27;20038;-64
2021/12/29 10:06:03;;;;;;;26.95;16.55;;;;;;;18.21;24.62;100043.56;5135955;27;20062;-64
2021/12/29 10:08:33;;;;;;;22.67;15.00;;;;;;;18.20;24.51;100041.88;5134961;27;20088;-64
2021/12/29 10:11:05;;;;;;;22.38;14.77;;;;;;;18.19;24.63;100042.88;5135025;27;20035;-64
2021/12/29 10:13:32;;;;;;;23.77;15.63;;;;;;;18.19;24.58;100039.38;5127256;27;20035;-64
2021/12/29 10:16:13;;;;;;;23.50;15.20;;;;;;;18.19;24.59;100036.69;5134293;27;20506;-64
2021/12/29 10:18:43;;;;;;;26.05;17.10;;;;;;;18.19;24.29;100031.31;5135442;27;20054;-64
2021/12/29 10:21:18;;;;;;;25.48;14.98;;;;;;;18.19;24.36;100028.66;5135769;27;20050;-64
2021/12/29 10:23:46;;;;;;;23.60;16.60;;;;;;;18.18;24.04;100025.13;5135901;27;20030;-64
2021/12/29 10:26:22;;;;;;;26.65;16.13;;;;;;;18.18;24.27;100017.09;5134760;27;20039;-64
2021/12/29 10:28:51;;;;;;;23.63;15.32;;;;;;;18.16;24.26;100008.34;5135837;27;20035;-64
2021/12/29 10:31:23;;;;;;;27.45;16.15;;;;;;;18.15;24.52;100004.84;5134884;27;20034;-63
2021/12/29 10:33:57;;;;;;;23.13;15.18;;;;;;;18.15;24.59;100001.34;5135091;27;20063;-63
2021/12/29 10:36:26;;;;;;;24.27;15.15;;;;;;;18.15;24.20;100001.34;5134504;27;20405;-65
2021/12/29 10:39:35;;;;;;;26.60;16.15;;;;;;;18.13;24.44;100016.75;5135519;27;20031;-64
2021/12/29 10:42:12;;;;;;;24.85;15.95;;;;;;;18.11;24.39;99995.44;5031328;28;20110;-63
2021/12/29 10:44:40;;;;;;;27.75;15.02;;;;;;;18.12;24.67;100001.66;5032018;28;20033;-64
2021/12/29 10:47:18;;;;;;;26.25;15.95;;;;;;;18.10;24.26;99996.44;5093196;27;20096;-64
2021/12/29 10:50:00;;;;;;;27.15;15.38;;;;;;;18.10;24.34;99993.78;5135144;27;20048;-64
2021/12/29 10:52:58;;;;;;;28.88;16.00;;;;;;;18.11;24.35;99994.63;5134990;27;20038;-64
2021/12/29 10:55:34;;;;;;;32.13;17.15;;;;;;;18.08;24.08;99984.22;5133523;27;20035;-63
2021/12/29 10:58:12;;;;;;;25.45;15.75;;;;;;;18.08;24.58;99986.91;5133719;27;20046;-64
2021/12/29 11:00:40;;;;;;;23.10;14.70;;;;;;;18.07;24.26;99985.22;5134729;27;20023;-64
2021/12/29 11:03:16;;;;;;;29.05;15.73;;;;;;;18.08;24.10;99978.88;5134917;27;20031;-64
2021/12/29 11:05:48;;;;;;;24.60;14.15;;;;;;;18.09;24.32;99980.56;5115683;27;20035;-64
2021/12/29 11:08:15;;;;;;;21.40;14.35;;;;;;;18.09;24.28;99976.03;5131497;27;20677;-63
2021/12/29 11:10:43;;;;;;;27.90;15.75;;;;;;;18.08;24.35;99973.50;5118108;27;20046;-63
2021/12/29 11:13:09;;;;;;;19.58;13.90;;;;;;;18.08;24.50;99957.44;5128202;27;20498;-63
2021/12/29 11:15:41;;;;;;;20.60;13.10;;;;;;;18.07;24.28;99961.97;5134944;27;20481;-63